Brandon Municipal Airport
CYBR : now visible

Airfield :











YOU CAN JOIN US ON...

 
LOGIN :

Register | Disclaimer

   EN    FR    IT 

 









Legend :    VFR   Marginal VFR   IFR   Intensive IFR   Very Intensive IFR
Visi :
Ceiling :
>= 8 km
>= 3000ft
5 to 8 km
1000 to 3000 ft
1500m to 5 km
500 to 1000 ft
800 to 1500m
200 to 500 ft
< 800m
< 200 ft
Symbols :   Thunderstorms  Fog  Heavy snow  Heavy precipitations  Wind > 20 kt






- Airport Elevation : 1343 ft
- IATA code : YBR


CYBR - Brandon Municipal

CURRENT METAR :
  • 080800Z 03015KT 15SM -SN OVC054 M11/M16 A2988 RMK SC8 SLP150

EXPIRED METARs :
  • 080700Z 03017G22KT 15SM -SN OVC054 M10/M15 A2985 RMK SC8 SLP139
  • 080600Z 04021G26KT 15SM -SN OVC049 M09/M13 A2981 RMK SC8 SLP124

TAF TAF CYBR
Valid from the 08 at 06:00 until the 08 at 18:00 UTC


080550Z 0806/0818 05012G22KT P6SM SCT020 BKN050 OVC090
TEMPO 0806/0809 5SM -SN BKN020 OVC050
FM081100 06012KT P6SM SCT020 BKN090 RMK NXT FCST BY 081200Z



MET'MAP, your aeronautical weather chart ! - Copyright ORBIFLY December 2007 - Disclaimer

ORBIFLY MET'MAP TEAM :

Programming & Development : Alexandra Zaïnal
Concept & original design : Baudouin d'Aumeries
Assistance for programming : Marc-Olivier Méhu
Technical & hardware support : Manuel Goepfert

Contact : metmap@orbifly.com




SOURCES & CREDITS :

   NOAA       Earth
Advisory